createdAt,value
2023-02-03T00:05:56.011Z,100643.40
2023-02-03T00:11:00.269Z,100645.20
2023-02-03T00:36:53.987Z,100663.00
2023-02-03T00:41:57.355Z,100660.20
2023-02-03T00:47:00.839Z,100655.60
2023-02-03T00:52:04.756Z,100651.00
2023-02-03T01:04:16.415Z,100647.80
2023-02-03T01:09:19.938Z,100645.20
2023-02-03T01:14:23.457Z,100641.80
2023-02-03T01:19:27.386Z,100639.00
2023-02-03T01:33:00.968Z,100624.60
2023-02-03T01:38:04.602Z,100610.80
2023-02-03T01:44:01.624Z,100602.20
2023-02-03T01:49:14.613Z,100598.60
2023-02-03T01:54:25.128Z,100586.40
2023-02-03T01:59:31.913Z,100576.20
2023-02-03T02:04:57.057Z,100568.80
2023-02-03T02:20:15.448Z,100561.00
2023-02-03T02:36:10.135Z,100542.60
2023-02-03T02:41:41.675Z,100542.20
2023-02-03T02:46:50.964Z,100537.60
2023-02-03T03:00:41.256Z,100519.20
2023-02-03T03:05:54.387Z,100506.40
2023-02-03T03:11:44.179Z,100515.20
2023-02-03T03:16:57.016Z,100514.00
2023-02-03T03:22:07.699Z,100512.80
2023-02-03T03:28:30.894Z,100509.00
2023-02-03T03:33:34.362Z,100520.20
2023-02-03T03:39:27.998Z,100522.00
2023-02-03T03:44:48.559Z,100523.40
2023-02-03T03:49:55.329Z,100526.60
2023-02-03T03:56:18.967Z,100523.80
2023-02-03T04:01:24.451Z,100508.00
2023-02-03T04:13:36.452Z,100483.80
2023-02-03T04:18:40.100Z,100477.00
2023-02-03T04:23:43.628Z,100471.60
2023-02-03T04:43:28.539Z,100451.20
2023-02-03T04:49:11.867Z,100445.40
2023-02-03T04:54:15.671Z,100442.20
2023-02-03T04:59:19.267Z,100446.00
2023-02-03T05:04:23.230Z,100437.60
2023-02-03T05:09:29.590Z,100439.20
2023-02-03T05:23:11.039Z,100411.60
2023-02-03T05:28:40.470Z,100403.20
2023-02-03T05:34:21.890Z,100390.40
2023-02-03T05:39:25.497Z,100380.80
2023-02-03T05:44:29.645Z,100368.80
2023-02-03T05:49:33.160Z,100360.80
2023-02-03T05:54:36.969Z,100351.00
2023-02-03T05:59:41.853Z,100343.80
2023-02-03T06:04:45.675Z,100336.60
2023-02-03T06:18:18.831Z,100320.20
2023-02-03T06:44:36.580Z,100275.80
2023-02-03T06:49:40.056Z,100257.80
2023-02-03T07:10:53.244Z,100208.00
2023-02-03T07:15:57.406Z,100204.00
2023-02-03T07:21:01.161Z,100189.80
2023-02-03T07:26:07.761Z,100194.00
2023-02-03T07:32:07.832Z,100192.20
2023-02-03T07:37:11.514Z,100192.00
2023-02-03T07:42:15.197Z,100178.00
2023-02-03T07:54:39.508Z,100151.60
2023-02-03T07:59:43.239Z,100144.00
2023-02-03T08:13:50.291Z,100108.80
2023-02-03T08:18:53.919Z,100092.40
2023-02-03T08:23:57.768Z,100087.20
2023-02-03T08:29:51.827Z,100092.20
2023-02-03T08:49:12.966Z,100047.20
2023-02-03T09:20:24.965Z,99975.80
2023-02-03T09:26:20.660Z,99965.00
2023-02-03T09:31:24.330Z,99958.40
2023-02-03T09:36:28.625Z,99937.80
2023-02-03T09:42:04.446Z,99930.00
2023-02-03T09:47:19.255Z,99916.20
2023-02-03T09:52:41.088Z,99903.20
2023-02-03T10:13:09.203Z,99863.40
2023-02-03T10:18:36.867Z,99850.60
2023-02-03T10:23:55.353Z,99823.60
2023-02-03T10:29:13.798Z,99813.80
2023-02-03T10:34:20.890Z,99801.40
2023-02-03T10:46:16.059Z,99758.00
2023-02-03T10:52:05.268Z,99721.20
2023-02-03T11:06:05.476Z,99684.40
2023-02-03T11:11:32.139Z,99664.40
2023-02-03T11:16:39.592Z,99652.00
2023-02-03T11:21:49.836Z,99646.80
2023-02-03T11:27:08.511Z,99632.80
2023-02-03T11:32:19.803Z,99630.80
2023-02-03T11:44:34.564Z,99600.80
2023-02-03T11:50:36.425Z,99584.00
2023-02-03T11:56:12.002Z,99576.00
2023-02-03T12:01:49.804Z,99567.40
2023-02-03T12:07:22.314Z,99546.60
2023-02-03T12:13:06.480Z,99535.80
2023-02-03T12:18:39.607Z,99515.20
2023-02-03T12:24:24.705Z,99497.80
2023-02-03T12:30:03.312Z,99481.20
2023-02-03T12:35:23.336Z,99469.00
2023-02-03T12:40:53.062Z,99459.00
2023-02-03T12:46:22.745Z,99445.60
2023-02-03T12:52:04.750Z,99429.40
2023-02-03T12:57:37.262Z,99415.80
2023-02-03T13:03:07.896Z,99407.20
2023-02-03T13:08:39.709Z,99402.20
2023-02-03T13:13:59.153Z,99397.80
2023-02-03T13:19:17.892Z,99387.80
2023-02-03T13:24:28.547Z,99380.40
2023-02-03T13:29:54.589Z,99379.40
2023-02-03T13:35:54.086Z,99369.00
2023-02-03T13:41:29.297Z,99365.60
2023-02-03T13:46:53.315Z,99354.40
2023-02-03T13:51:57.803Z,99347.40
2023-02-03T13:57:52.297Z,99338.20
2023-02-03T14:02:57.223Z,99333.20
2023-02-03T14:09:18.843Z,99332.60
2023-02-03T14:29:02.359Z,99321.60
2023-02-03T14:34:46.237Z,99316.80
2023-02-03T14:40:49.767Z,99313.60
2023-02-03T14:46:33.163Z,99303.60
2023-02-03T14:52:15.203Z,99295.40
2023-02-03T15:04:50.860Z,99271.20
2023-02-03T15:10:55.103Z,99273.60
2023-02-03T15:23:59.749Z,99271.40
2023-02-03T15:29:41.513Z,99275.20
2023-02-03T15:34:49.448Z,99277.20
2023-02-03T15:47:05.547Z,99305.60
2023-02-03T15:52:25.098Z,99313.20
2023-02-03T15:57:35.076Z,99303.80
2023-02-03T16:02:47.603Z,99305.20
2023-02-03T16:07:52.339Z,99320.60
2023-02-03T16:13:23.606Z,99337.20
2023-02-03T16:18:27.425Z,99345.80
2023-02-03T16:23:31.251Z,99354.20
2023-02-03T16:29:56.549Z,99365.00
2023-02-03T16:35:19.090Z,99369.80
2023-02-03T16:40:43.535Z,99360.40
2023-02-03T16:46:14.902Z,99371.20
2023-02-03T16:51:44.375Z,99373.60
2023-02-03T16:56:56.639Z,99383.40
2023-02-03T17:02:05.497Z,99383.60
2023-02-03T17:07:09.544Z,99378.60
2023-02-03T17:12:13.477Z,99386.40
2023-02-03T17:17:17.319Z,99390.80
2023-02-03T17:22:21.448Z,99405.60
2023-02-03T17:27:25.389Z,99397.00
2023-02-03T17:32:29.309Z,99389.60
2023-02-03T17:38:02.059Z,99407.00
2023-02-03T17:54:09.191Z,99418.00
2023-02-03T17:59:12.968Z,99425.20
2023-02-03T18:04:16.750Z,99425.00
2023-02-03T18:09:24.206Z,99432.60
2023-02-03T18:14:47.352Z,99447.80
2023-02-03T18:19:56.466Z,99438.60
2023-02-03T18:25:58.052Z,99453.20
2023-02-03T18:31:56.926Z,99462.20
2023-02-03T18:38:23.939Z,99445.60
2023-02-03T18:44:50.145Z,99450.20
2023-02-03T18:58:24.086Z,99490.20
2023-02-03T19:10:46.347Z,99517.80
2023-02-03T19:15:53.269Z,99522.00
2023-02-03T19:20:58.277Z,99532.80
2023-02-03T19:26:06.068Z,99528.00
2023-02-03T19:38:20.573Z,99548.20
2023-02-03T19:43:28.043Z,99589.80
2023-02-03T19:48:31.846Z,99611.40
2023-02-03T19:53:36.801Z,99615.80
2023-02-03T19:58:40.853Z,99611.40
2023-02-03T20:03:48.905Z,99628.80
2023-02-03T20:08:59.971Z,99622.80
2023-02-03T20:14:05.955Z,99625.80
2023-02-03T20:19:10.971Z,99636.00
2023-02-03T20:24:15.091Z,99653.80
2023-02-03T20:29:37.795Z,99672.40
2023-02-03T20:34:41.809Z,99675.40
2023-02-03T20:39:46.438Z,99691.40
2023-02-03T20:45:46.493Z,99700.80
2023-02-03T20:50:54.097Z,99709.20
2023-02-03T20:56:02.423Z,99719.40
2023-02-03T21:02:23.657Z,99736.40
2023-02-03T21:07:32.833Z,99769.40
2023-02-03T21:12:36.652Z,99783.40
2023-02-03T21:17:40.421Z,99801.20
2023-02-03T21:22:44.419Z,99824.80
2023-02-03T21:27:48.621Z,99840.80
2023-02-03T21:32:52.370Z,99855.80
2023-02-03T21:38:04.762Z,99871.00
2023-02-03T21:43:26.646Z,99896.40
2023-02-03T21:48:41.076Z,99918.80
2023-02-03T21:53:55.181Z,99941.80
2023-02-03T21:59:00.239Z,99955.00
2023-02-03T22:04:06.965Z,99969.80
2023-02-03T22:09:23.229Z,99983.80
2023-02-03T22:29:44.142Z,100042.20
2023-02-03T22:36:11.985Z,100045.00
2023-02-03T22:41:58.376Z,100063.60
2023-02-03T22:47:55.201Z,100080.80
2023-02-03T22:53:07.914Z,100090.40
2023-02-03T22:58:14.728Z,100087.00
2023-02-03T23:03:21.839Z,100103.00
2023-02-03T23:16:40.254Z,100142.40
2023-02-03T23:22:19.556Z,100169.20
2023-02-03T23:28:39.609Z,100173.20
2023-02-03T23:34:06.404Z,100193.80
2023-02-03T23:39:10.196Z,100210.40
2023-02-03T23:44:14.061Z,100229.40
2023-02-03T23:50:57.474Z,100238.80
2023-02-03T23:56:01.540Z,100252.00
